createdAt,value
2017-07-27T00:02:14.271Z,13.00
2017-07-27T00:04:43.755Z,12.93
2017-07-27T00:07:13.949Z,12.50
2017-07-27T00:09:43.419Z,11.98
2017-07-27T00:12:12.995Z,11.63
2017-07-27T00:14:42.405Z,11.93
2017-07-27T00:17:12.865Z,12.20
2017-07-27T00:19:42.303Z,11.50
2017-07-27T00:22:12.483Z,12.53
2017-07-27T00:24:41.909Z,12.10
2017-07-27T00:27:11.587Z,11.18
2017-07-27T00:29:42.035Z,11.43
2017-07-27T00:32:11.716Z,12.80
2017-07-27T00:34:42.182Z,11.75
2017-07-27T00:37:11.385Z,13.27
2017-07-27T00:39:41.087Z,12.48
2017-07-27T00:42:10.770Z,12.37
2017-07-27T00:44:40.463Z,11.82
2017-07-27T00:47:10.923Z,13.25
2017-07-27T00:49:40.336Z,12.97
2017-07-27T00:52:09.733Z,12.67
2017-07-27T00:54:39.442Z,12.93
2017-07-27T00:57:08.858Z,12.73
2017-07-27T00:59:38.273Z,12.60
2017-07-27T01:02:07.663Z,12.00
2017-07-27T01:04:36.980Z,13.10
2017-07-27T01:07:06.395Z,12.40
2017-07-27T01:09:36.593Z,12.00
2017-07-27T01:12:06.019Z,12.23
2017-07-27T01:14:35.697Z,12.93
2017-07-27T01:17:05.390Z,13.02
2017-07-27T01:19:34.803Z,13.00
2017-07-27T01:22:04.504Z,13.60
2017-07-27T01:24:33.915Z,13.20
2017-07-27T01:27:03.333Z,13.57
2017-07-27T01:29:32.732Z,15.03
2017-07-27T01:32:02.170Z,13.73
2017-07-27T01:34:32.324Z,13.70
2017-07-27T01:37:02.029Z,15.20
2017-07-27T01:39:32.459Z,13.70
2017-07-27T01:42:01.885Z,13.13
2017-07-27T01:44:31.372Z,13.60
2017-07-27T01:47:00.784Z,13.47
2017-07-27T01:49:29.483Z,12.53
2017-07-27T01:51:58.605Z,12.73
2017-07-27T01:54:27.943Z,12.40
2017-07-27T01:56:56.639Z,12.10
2017-07-27T01:59:26.078Z,13.47
2017-07-27T02:01:54.933Z,11.80
2017-07-27T02:04:25.399Z,11.90
2017-07-27T02:06:55.059Z,13.05
2017-07-27T02:09:25.530Z,13.50
2017-07-27T02:11:55.198Z,13.73
2017-07-27T02:14:25.680Z,12.80
2017-07-27T02:16:55.070Z,12.50
2017-07-27T02:19:24.786Z,13.07
2017-07-27T02:21:54.200Z,12.53
2017-07-27T02:24:23.887Z,12.93
2017-07-27T02:26:53.560Z,13.50
2017-07-27T02:29:22.981Z,13.27
2017-07-27T02:31:52.397Z,12.67
2017-07-27T02:34:22.098Z,13.38
2017-07-27T02:36:51.791Z,13.68
2017-07-27T02:39:21.542Z,12.85
2017-07-27T02:41:51.233Z,13.77
2017-07-27T02:44:20.902Z,12.93
2017-07-27T02:46:50.607Z,13.70
2017-07-27T02:49:20.306Z,13.18
2017-07-27T02:51:50.776Z,13.70
2017-07-27T02:54:20.453Z,13.88
2017-07-27T02:56:49.940Z,13.53
2017-07-27T02:59:19.623Z,13.30
2017-07-27T03:01:49.345Z,12.85
2017-07-27T03:04:19.028Z,13.40
2017-07-27T03:06:48.439Z,12.43
2017-07-27T03:09:18.107Z,12.35
2017-07-27T03:11:47.808Z,13.15
2017-07-27T03:14:17.499Z,12.25
2017-07-27T03:16:47.185Z,13.68
2017-07-27T03:19:16.870Z,12.70
2017-07-27T03:21:46.560Z,13.32
2017-07-27T03:24:15.972Z,13.03
2017-07-27T03:26:45.667Z,13.35
2017-07-27T03:29:15.371Z,13.02
2017-07-27T03:31:45.814Z,11.50
2017-07-27T03:34:15.529Z,12.75
2017-07-27T03:36:45.217Z,12.25
2017-07-27T03:39:15.680Z,13.15
2017-07-27T03:41:45.396Z,13.05
2017-07-27T03:44:15.102Z,12.60
2017-07-27T03:46:44.788Z,13.60
2017-07-27T03:49:14.524Z,12.57
2017-07-27T03:51:44.217Z,12.45
2017-07-27T03:54:13.927Z,13.45
2017-07-27T03:56:43.633Z,12.50
2017-07-27T03:59:13.354Z,13.05
2017-07-27T04:01:43.072Z,12.88
2017-07-27T04:04:12.779Z,12.60
2017-07-27T04:06:42.454Z,13.45
2017-07-27T04:09:12.176Z,11.73
2017-07-27T04:11:41.880Z,12.75
2017-07-27T04:14:11.576Z,12.75
2017-07-27T04:16:42.036Z,12.88
2017-07-27T04:19:11.726Z,13.20
2017-07-27T04:21:41.426Z,12.15
2017-07-27T04:24:11.099Z,12.80
2017-07-27T04:26:40.805Z,13.23
2017-07-27T04:29:10.510Z,12.90
2017-07-27T04:31:40.189Z,13.70
2017-07-27T04:34:09.882Z,12.50
2017-07-27T04:36:39.601Z,11.50
2017-07-27T04:39:09.298Z,15.20
2017-07-27T04:41:39.000Z,13.00
2017-07-27T04:44:09.450Z,11.00
2017-07-27T04:46:39.149Z,11.02
2017-07-27T04:49:08.836Z,10.60
2017-07-27T04:51:38.532Z,10.30
2017-07-27T04:54:08.202Z,11.45
2017-07-27T04:56:37.211Z,10.82
2017-07-27T04:59:06.702Z,10.73
2017-07-27T05:01:36.738Z,11.15
2017-07-27T05:04:05.990Z,12.75
2017-07-27T05:06:35.245Z,11.12
2017-07-27T05:09:03.823Z,10.35
2017-07-27T05:11:33.071Z,11.63
2017-07-27T05:14:02.544Z,12.63
2017-07-27T05:16:31.783Z,11.65
2017-07-27T05:19:01.100Z,10.82
2017-07-27T05:21:30.348Z,10.10
2017-07-27T05:23:59.593Z,9.05
2017-07-27T05:26:28.837Z,8.88
2017-07-27T05:28:57.460Z,8.53
2017-07-27T05:31:26.430Z,7.70
2017-07-27T05:33:55.418Z,8.07
2017-07-27T05:36:24.355Z,9.07
2017-07-27T05:38:53.331Z,8.33
2017-07-27T05:41:22.289Z,7.93
2017-07-27T05:43:51.253Z,7.73
2017-07-27T05:46:20.215Z,8.20
2017-07-27T05:48:49.704Z,7.90
2017-07-27T05:51:18.667Z,7.27
2017-07-27T05:53:48.425Z,7.77
2017-07-27T05:56:17.390Z,7.10
2017-07-27T05:58:46.354Z,7.33
2017-07-27T06:01:16.319Z,7.53
2017-07-27T06:03:45.336Z,7.70
2017-07-27T06:06:14.358Z,7.73
2017-07-27T06:08:44.100Z,8.20
2017-07-27T06:11:13.093Z,9.07
2017-07-27T06:13:42.820Z,9.50
2017-07-27T06:16:11.800Z,9.20
2017-07-27T06:18:40.745Z,9.07
2017-07-27T06:21:09.714Z,9.77
2017-07-27T06:23:38.671Z,8.60
2017-07-27T06:26:07.656Z,9.77
2017-07-27T06:28:37.394Z,9.63
2017-07-27T06:31:06.346Z,10.30
2017-07-27T06:33:35.348Z,10.20
2017-07-27T06:36:05.098Z,10.63
2017-07-27T06:38:34.086Z,10.27
2017-07-27T06:41:03.042Z,9.73
2017-07-27T06:43:32.032Z,8.97
2017-07-27T06:46:00.987Z,9.10
2017-07-27T06:48:29.962Z,10.17
2017-07-27T06:50:58.932Z,9.80
2017-07-27T06:53:27.917Z,17.57
2017-07-27T06:56:01.482Z,10.60
2017-07-27T06:58:30.817Z,10.87
2017-07-27T07:00:59.800Z,10.47
2017-07-27T07:03:28.416Z,10.77
2017-07-27T07:05:58.177Z,10.43
2017-07-27T07:08:27.169Z,11.83
2017-07-27T07:10:56.122Z,10.23
2017-07-27T07:13:25.105Z,9.60
2017-07-27T07:15:54.820Z,12.17
2017-07-27T07:18:23.797Z,10.20
2017-07-27T07:20:52.777Z,11.80
2017-07-27T07:23:21.723Z,11.47
2017-07-27T07:25:51.470Z,10.70
2017-07-27T07:28:22.049Z,10.50
2017-07-27T07:30:51.036Z,10.57
2017-07-27T07:33:20.759Z,11.20
2017-07-27T07:35:49.759Z,10.50
2017-07-27T07:38:18.704Z,11.10
2017-07-27T07:40:48.480Z,10.40
2017-07-27T07:43:18.197Z,10.50
2017-07-27T07:45:47.202Z,9.87
2017-07-27T07:48:16.153Z,10.17
2017-07-27T07:50:45.152Z,10.67
2017-07-27T07:53:14.124Z,10.67
2017-07-27T07:55:43.880Z,10.60
2017-07-27T07:58:12.823Z,10.10
2017-07-27T08:00:42.559Z,11.10
2017-07-27T08:03:11.543Z,9.80
2017-07-27T08:05:40.505Z,11.70
2017-07-27T08:08:09.494Z,9.97
2017-07-27T08:10:38.488Z,9.97
2017-07-27T08:13:08.246Z,9.73
2017-07-27T08:15:37.189Z,9.10
2017-07-27T08:18:06.929Z,11.17
2017-07-27T08:20:37.425Z,9.03
2017-07-27T08:23:06.592Z,8.47
2017-07-27T08:25:35.555Z,8.93
2017-07-27T08:28:04.534Z,9.53
2017-07-27T08:30:33.489Z,8.67
2017-07-27T08:33:03.088Z,8.90
2017-07-27T08:35:32.072Z,9.10
2017-07-27T08:38:01.049Z,7.50
2017-07-27T08:40:30.581Z,8.13
2017-07-27T08:42:59.631Z,8.40
2017-07-27T08:45:28.628Z,8.00
2017-07-27T08:47:57.719Z,13.20
2017-07-27T08:50:27.442Z,6.70
2017-07-27T08:52:56.385Z,8.30
2017-07-27T08:55:25.358Z,6.73
2017-07-27T08:57:54.308Z,8.37
2017-07-27T09:00:22.947Z,7.50
2017-07-27T09:02:51.894Z,6.93
2017-07-27T09:05:20.876Z,7.67
2017-07-27T09:07:49.818Z,8.27
2017-07-27T09:10:18.825Z,8.30
2017-07-27T09:12:47.783Z,8.20
2017-07-27T09:15:17.530Z,13.30
2017-07-27T09:17:46.546Z,6.73
2017-07-27T09:20:15.519Z,7.70
2017-07-27T09:22:45.248Z,8.23
2017-07-27T09:25:14.988Z,8.43
2017-07-27T09:27:43.933Z,6.50
2017-07-27T09:30:14.615Z,6.87
2017-07-27T09:32:44.363Z,7.70
2017-07-27T09:35:13.304Z,6.80
2017-07-27T09:37:42.253Z,7.30
2017-07-27T09:40:11.202Z,7.10
2017-07-27T09:42:40.186Z,8.13
2017-07-27T09:45:09.128Z,6.83
2017-07-27T09:47:38.100Z,6.60
2017-07-27T09:50:07.062Z,8.00
2017-07-27T09:52:36.790Z,7.83
2017-07-27T09:55:05.734Z,7.90
2017-07-27T09:57:40.363Z,7.50
2017-07-27T10:00:09.363Z,9.67
2017-07-27T10:02:38.319Z,9.10
2017-07-27T10:05:07.261Z,7.30
2017-07-27T10:07:37.027Z,7.80
2017-07-27T10:10:05.981Z,9.37
2017-07-27T10:12:35.010Z,9.33
2017-07-27T10:15:03.966Z,9.83
2017-07-27T10:17:32.924Z,9.20
2017-07-27T10:20:01.584Z,8.20
2017-07-27T10:22:30.544Z,8.57
2017-07-27T10:24:59.520Z,10.43
2017-07-27T10:27:28.892Z,7.97
2017-07-27T10:29:57.867Z,8.53
2017-07-27T10:32:26.836Z,7.70
2017-07-27T10:34:55.811Z,9.20
2017-07-27T10:37:24.780Z,9.00
2017-07-27T10:39:53.772Z,9.00
2017-07-27T10:42:22.723Z,8.30
2017-07-27T10:44:51.689Z,8.67
2017-07-27T10:47:20.647Z,9.37
2017-07-27T10:49:49.643Z,9.80
2017-07-27T10:52:18.584Z,9.60
2017-07-27T10:54:47.543Z,9.20
2017-07-27T10:57:17.283Z,9.73
2017-07-27T10:59:46.336Z,9.43
2017-07-27T11:02:15.294Z,9.43
2017-07-27T11:04:44.285Z,9.43
2017-07-27T11:07:13.304Z,9.37
2017-07-27T11:09:42.250Z,10.70
2017-07-27T11:12:11.264Z,10.07
2017-07-27T11:14:40.226Z,11.10
2017-07-27T11:17:09.229Z,11.20
2017-07-27T11:19:38.205Z,10.10
2017-07-27T11:22:07.927Z,9.57
2017-07-27T11:24:36.911Z,12.00
2017-07-27T11:27:05.888Z,9.70
2017-07-27T11:29:34.855Z,9.67
2017-07-27T11:32:04.622Z,10.00
2017-07-27T11:34:33.581Z,9.20
2017-07-27T11:37:02.556Z,9.67
2017-07-27T11:39:32.268Z,10.00
2017-07-27T11:42:02.001Z,9.37
2017-07-27T11:44:31.005Z,8.33
2017-07-27T11:46:59.996Z,9.70
2017-07-27T11:49:29.013Z,9.33
2017-07-27T11:51:57.996Z,10.10
2017-07-27T11:54:26.965Z,9.07
2017-07-27T11:56:55.925Z,10.63
2017-07-27T11:59:24.902Z,8.93
2017-07-27T12:01:53.867Z,10.10
2017-07-27T12:04:22.829Z,10.30
2017-07-27T12:06:51.773Z,10.07
2017-07-27T12:09:20.796Z,10.50
2017-07-27T12:11:50.589Z,10.80
2017-07-27T12:14:19.605Z,10.40
2017-07-27T12:16:49.232Z,10.80
2017-07-27T12:19:19.195Z,10.90
2017-07-27T12:21:48.159Z,10.70
2017-07-27T12:24:17.129Z,11.67
2017-07-27T12:26:46.853Z,11.43
2017-07-27T12:29:15.819Z,12.43
2017-07-27T12:31:45.556Z,13.70
2017-07-27T12:34:14.519Z,10.47
2017-07-27T12:36:44.283Z,8.40
2017-07-27T12:39:13.227Z,7.17
2017-07-27T12:41:42.966Z,9.60
2017-07-27T12:44:11.959Z,10.70
2017-07-27T12:46:40.938Z,12.80
2017-07-27T12:49:09.894Z,14.53
2017-07-27T12:51:38.864Z,14.57
2017-07-27T12:54:08.678Z,15.20
2017-07-27T12:56:37.720Z,16.80
2017-07-27T12:59:07.445Z,15.87
2017-07-27T13:01:36.464Z,17.20
2017-07-27T13:04:05.456Z,16.20
2017-07-27T13:06:34.405Z,15.50
2017-07-27T13:09:03.048Z,15.27
2017-07-27T13:11:32.572Z,12.33
2017-07-27T13:14:01.384Z,13.53
2017-07-27T13:16:30.351Z,12.73
2017-07-27T13:18:59.347Z,11.77
2017-07-27T13:21:28.305Z,11.63
2017-07-27T13:23:58.055Z,11.97
2017-07-27T13:26:27.023Z,15.13
2017-07-27T13:28:56.766Z,11.30
2017-07-27T13:31:25.733Z,12.80
2017-07-27T13:33:54.701Z,12.27
2017-07-27T13:36:23.300Z,13.30
2017-07-27T13:38:53.058Z,13.10
2017-07-27T13:41:22.024Z,12.77
2017-07-27T13:43:51.014Z,14.23
2017-07-27T13:46:20.743Z,13.13
2017-07-27T13:48:49.758Z,12.90
2017-07-27T13:51:18.732Z,12.40
2017-07-27T13:53:47.702Z,14.10
2017-07-27T13:56:16.669Z,13.47
2017-07-27T13:58:45.647Z,13.10
2017-07-27T14:01:14.682Z,16.50
2017-07-27T14:03:43.625Z,13.50
2017-07-27T14:06:12.630Z,11.10
2017-07-27T14:08:41.593Z,10.40
2017-07-27T14:11:10.562Z,11.13
2017-07-27T14:13:40.286Z,10.17
2017-07-27T14:16:10.022Z,9.87
2017-07-27T14:18:39.051Z,10.63
2017-07-27T14:21:08.052Z,10.20
2017-07-27T14:23:37.003Z,9.13
2017-07-27T14:26:05.997Z,8.33
2017-07-27T14:28:35.713Z,9.20
2017-07-27T14:31:04.671Z,8.23
2017-07-27T14:33:33.690Z,8.87
2017-07-27T14:36:03.068Z,8.63
2017-07-27T14:38:32.015Z,8.00
2017-07-27T14:41:00.953Z,9.40
2017-07-27T14:43:29.916Z,25.10
2017-07-27T14:45:58.885Z,8.20
2017-07-27T14:48:27.942Z,7.90
2017-07-27T14:50:56.910Z,6.97
2017-07-27T14:53:25.866Z,7.73
2017-07-27T14:55:54.798Z,7.37
2017-07-27T14:58:23.781Z,7.40
2017-07-27T15:00:53.494Z,7.50
2017-07-27T15:03:23.236Z,6.80
2017-07-27T15:05:52.193Z,7.10
2017-07-27T15:08:21.308Z,7.30
2017-07-27T15:10:50.255Z,7.43
2017-07-27T15:13:19.259Z,6.90
2017-07-27T15:15:48.315Z,7.50
2017-07-27T15:18:17.290Z,9.40
2017-07-27T15:20:47.010Z,11.03
2017-07-27T15:23:15.688Z,7.90
2017-07-27T15:25:45.408Z,9.90
2017-07-27T15:28:14.360Z,6.70
2017-07-27T15:30:43.354Z,10.40
2017-07-27T15:33:12.308Z,7.13
2017-07-27T15:35:41.275Z,7.70
2017-07-27T15:38:11.006Z,6.87
2017-07-27T15:40:39.974Z,6.97
2017-07-27T15:43:09.710Z,7.20
2017-07-27T15:45:38.687Z,7.10
2017-07-27T15:48:07.653Z,8.23
2017-07-27T15:50:36.631Z,13.17
2017-07-27T15:53:05.597Z,7.30
2017-07-27T15:55:34.544Z,8.10
2017-07-27T15:58:04.283Z,10.00
2017-07-27T16:00:33.247Z,15.20
2017-07-27T16:03:02.994Z,15.23
2017-07-27T16:05:31.962Z,9.60
2017-07-27T16:08:01.730Z,7.30
2017-07-27T16:10:30.652Z,7.90
2017-07-27T16:12:59.658Z,8.27
2017-07-27T16:15:28.734Z,7.73
2017-07-27T16:17:58.430Z,7.10
2017-07-27T16:20:27.379Z,7.70
2017-07-27T16:22:56.337Z,7.70
2017-07-27T16:25:25.310Z,7.43
2017-07-27T16:27:54.281Z,12.20
2017-07-27T16:30:23.220Z,8.53
2017-07-27T16:32:53.282Z,11.83
2017-07-27T16:35:22.222Z,9.13
2017-07-27T16:37:51.190Z,8.83
2017-07-27T16:40:20.149Z,8.63
2017-07-27T16:42:49.138Z,17.27
2017-07-27T16:45:18.849Z,8.63
2017-07-27T16:47:47.815Z,9.73
2017-07-27T16:50:16.768Z,29.10
2017-07-27T16:52:45.754Z,19.73
2017-07-27T16:55:15.470Z,8.80
2017-07-27T16:57:44.469Z,10.50
2017-07-27T17:00:14.201Z,9.30
2017-07-27T17:02:44.814Z,12.03
2017-07-27T17:05:13.795Z,8.80
2017-07-27T17:07:43.537Z,9.43
2017-07-27T17:10:12.519Z,11.53
2017-07-27T17:12:41.513Z,30.67
2017-07-27T17:15:10.488Z,11.77
2017-07-27T17:17:39.456Z,9.63
2017-07-27T17:20:08.441Z,9.60
2017-07-27T17:22:38.386Z,10.10
2017-07-27T17:25:08.129Z,9.30
2017-07-27T17:27:37.074Z,9.37
2017-07-27T17:30:06.062Z,9.27
2017-07-27T17:32:35.021Z,8.87
2017-07-27T17:35:04.006Z,9.83
2017-07-27T17:37:33.019Z,9.10
2017-07-27T17:40:02.621Z,9.90
2017-07-27T17:42:31.608Z,10.40
2017-07-27T17:45:00.600Z,12.07
2017-07-27T17:47:29.566Z,10.17
2017-07-27T17:49:59.300Z,9.70
2017-07-27T17:52:28.260Z,11.30
2017-07-27T17:54:57.221Z,10.03
2017-07-27T17:57:26.968Z,9.70
2017-07-27T17:59:55.915Z,10.03
2017-07-27T18:02:25.662Z,9.87
2017-07-27T18:04:54.624Z,10.07
2017-07-27T18:07:24.355Z,37.20
2017-07-27T18:09:53.325Z,18.67
2017-07-27T18:12:23.074Z,10.03
2017-07-27T18:14:52.026Z,17.00
2017-07-27T18:17:21.761Z,11.90
2017-07-27T18:19:52.174Z,15.23
2017-07-27T18:22:21.174Z,10.00
2017-07-27T18:24:50.186Z,10.23
2017-07-27T18:27:19.136Z,10.00
2017-07-27T18:29:48.887Z,10.63
2017-07-27T18:32:17.865Z,12.60
2017-07-27T18:34:47.598Z,9.87
2017-07-27T18:37:16.566Z,11.20
2017-07-27T18:39:46.306Z,10.17
2017-07-27T18:42:15.323Z,9.77
2017-07-27T18:44:44.111Z,9.90
2017-07-27T18:47:13.081Z,11.03
2017-07-27T18:49:42.058Z,9.30
2017-07-27T18:52:11.024Z,11.57
2017-07-27T18:54:39.998Z,9.87
2017-07-27T18:57:08.762Z,9.83
2017-07-27T18:59:37.738Z,10.10
2017-07-27T19:02:07.522Z,10.13
2017-07-27T19:04:36.983Z,10.37
2017-07-27T19:07:06.383Z,9.60
2017-07-27T19:09:35.590Z,10.23
2017-07-27T19:12:05.024Z,10.03
2017-07-27T19:14:34.463Z,9.53
2017-07-27T19:17:04.627Z,8.00
2017-07-27T19:19:34.000Z,7.60
2017-07-27T19:22:03.418Z,6.20
2017-07-27T19:24:32.837Z,4.17
2017-07-27T19:27:02.246Z,3.43
2017-07-27T19:29:32.419Z,2.93
2017-07-27T19:32:01.829Z,3.70
2017-07-27T19:34:31.232Z,4.10
2017-07-27T19:37:00.649Z,4.60
2017-07-27T19:39:30.059Z,3.50
2017-07-27T19:41:59.454Z,6.10
2017-07-27T19:44:28.856Z,4.13
2017-07-27T19:46:58.273Z,5.20
2017-07-27T19:49:27.652Z,3.57
2017-07-27T19:51:57.492Z,4.12
2017-07-27T19:54:27.144Z,3.78
2017-07-27T19:56:57.627Z,4.10
2017-07-27T19:59:27.285Z,7.55
2017-07-27T20:01:57.334Z,4.82
2017-07-27T20:04:26.981Z,4.45
2017-07-27T20:06:56.777Z,4.93
2017-07-27T20:09:27.217Z,4.35
2017-07-27T20:11:57.715Z,3.62
2017-07-27T20:14:27.393Z,3.50
2017-07-27T20:16:57.056Z,3.47
2017-07-27T20:19:26.739Z,3.95
2017-07-27T20:21:56.411Z,4.18
2017-07-27T20:24:26.111Z,5.62
2017-07-27T20:26:55.761Z,6.00
2017-07-27T20:29:26.251Z,4.30
2017-07-27T20:31:55.955Z,7.55
2017-07-27T20:34:25.652Z,6.82
2017-07-27T20:36:55.328Z,4.75
2017-07-27T20:39:25.009Z,5.82
2017-07-27T20:41:54.422Z,5.60
2017-07-27T20:44:24.168Z,6.05
2017-07-27T20:46:55.899Z,6.40
2017-07-27T20:49:26.001Z,6.22
2017-07-27T20:51:56.446Z,10.70
2017-07-27T20:54:26.154Z,12.93
2017-07-27T20:56:56.591Z,6.05
2017-07-27T20:59:26.271Z,6.68
2017-07-27T21:01:55.667Z,5.73
2017-07-27T21:04:25.101Z,6.37
2017-07-27T21:06:54.782Z,8.77
2017-07-27T21:09:24.460Z,6.62
2017-07-27T21:11:54.152Z,6.45
2017-07-27T21:14:24.587Z,7.78
2017-07-27T21:16:54.267Z,7.97
2017-07-27T21:19:23.665Z,8.70
2017-07-27T21:21:53.346Z,8.38
2017-07-27T21:24:23.824Z,13.70
2017-07-27T21:26:53.493Z,19.52
2017-07-27T21:29:22.910Z,15.03
2017-07-27T21:31:53.350Z,19.10
2017-07-27T21:34:23.027Z,9.65
2017-07-27T21:36:52.694Z,9.55
2017-07-27T21:39:22.388Z,16.05
2017-07-27T21:41:51.807Z,9.73
2017-07-27T21:44:21.994Z,11.33
2017-07-27T21:46:52.444Z,8.95
2017-07-27T21:49:22.169Z,9.15
2017-07-27T21:51:51.836Z,9.18
2017-07-27T21:54:21.535Z,12.85
2017-07-27T21:56:51.707Z,13.80
2017-07-27T21:59:21.420Z,9.70
2017-07-27T22:01:51.102Z,11.63
2017-07-27T22:04:20.808Z,9.88
2017-07-27T22:06:50.482Z,9.93
2017-07-27T22:09:19.712Z,11.33
2017-07-27T22:11:49.370Z,7.10
2017-07-27T22:14:18.780Z,7.40
2017-07-27T22:16:49.232Z,7.12
2017-07-27T22:19:18.921Z,8.75
2017-07-27T22:21:49.341Z,6.93
2017-07-27T22:24:19.803Z,7.05
2017-07-27T22:26:49.496Z,7.78
2017-07-27T22:29:19.961Z,7.55
2017-07-27T22:31:49.352Z,7.80
2017-07-27T22:34:18.766Z,6.50
2017-07-27T22:36:48.442Z,7.95
2017-07-27T22:39:18.885Z,7.70
2017-07-27T22:41:48.563Z,7.53
2017-07-27T22:44:19.017Z,7.40
2017-07-27T22:46:48.685Z,7.05
2017-07-27T22:49:19.125Z,7.20
2017-07-27T22:51:48.526Z,7.20
2017-07-27T22:54:19.020Z,7.45
2017-07-27T22:56:48.669Z,7.78
2017-07-27T22:59:18.376Z,8.15
2017-07-27T23:01:48.831Z,7.82
2017-07-27T23:04:18.502Z,8.13
2017-07-27T23:06:48.968Z,7.80
2017-07-27T23:09:18.498Z,8.17
2017-07-27T23:11:48.195Z,9.30
2017-07-27T23:14:17.888Z,9.50
2017-07-27T23:16:47.583Z,10.05
2017-07-27T23:19:18.055Z,9.57
2017-07-27T23:21:47.727Z,9.77
2017-07-27T23:24:17.400Z,10.18
2017-07-27T23:26:47.884Z,9.10
2017-07-27T23:29:17.555Z,9.18
2017-07-27T23:31:47.277Z,9.93
2017-07-27T23:34:16.949Z,13.50
2017-07-27T23:36:47.419Z,11.00
2017-07-27T23:39:17.114Z,10.40
2017-07-27T23:41:46.824Z,11.02
2017-07-27T23:44:16.477Z,9.85
2017-07-27T23:46:46.196Z,9.98
2017-07-27T23:49:15.882Z,10.52
2017-07-27T23:51:45.557Z,9.30
2017-07-27T23:54:15.249Z,10.98
2017-07-27T23:56:44.929Z,11.25
2017-07-27T23:59:14.625Z,10.20
